Terminal Aerodrome Forecast
Issued by NWS

Home | Current Version | Previous Version | Graphics & Text | Print | Product List | Glossary On
Versions: 1 2 3 4 5 6 7 8 9 10 11 12 13 14 15 16 17 18 19 20 21 22 23 24 25 26 27 28 29 30
000
FTUS43 KBIS 041428 AAB
TAFMOT
TAF AMD
KMOT 041428Z 0414/0512 34011KT 6SM BR BKN008
     FM041500 36009KT P6SM VCTS BKN010CB
     FM041600 36009KT P6SM BKN030
     FM041800 35009KT P6SM VCTS SCT040CB BKN110
     FM042100 01011KT P6SM SCT040
     FM050700 02010KT 5SM BR BKN015=

USA.gov is the U.S. government's official web portal to all federal, state and local government web resources and services.